createdAt,value
2023-05-12T00:01:17.277Z,9.70
2023-05-12T00:03:45.058Z,10.18
2023-05-12T00:06:13.897Z,9.45
2023-05-12T00:08:42.301Z,8.60
2023-05-12T00:11:09.916Z,8.70
2023-05-12T00:13:37.557Z,8.00
2023-05-12T00:16:14.488Z,8.18
2023-05-12T00:18:47.306Z,7.53
2023-05-12T00:21:16.157Z,7.30
2023-05-12T00:23:43.612Z,6.63
2023-05-12T00:26:10.960Z,6.93
2023-05-12T00:28:44.149Z,8.07
2023-05-12T00:31:14.602Z,7.90
2023-05-12T00:33:51.033Z,7.50
2023-05-12T00:36:19.216Z,7.13
2023-05-12T00:38:47.003Z,7.50
2023-05-12T00:41:14.867Z,6.53
2023-05-12T00:43:47.659Z,7.55
2023-05-12T00:46:14.905Z,7.45
2023-05-12T00:48:46.944Z,7.27
2023-05-12T00:51:16.025Z,6.85
2023-05-12T00:53:49.797Z,6.65
2023-05-12T00:56:19.912Z,6.25
2023-05-12T00:58:47.848Z,6.25
2023-05-12T01:01:19.931Z,6.83
2023-05-12T01:03:50.448Z,6.22
2023-05-12T01:06:34.089Z,5.78
2023-05-12T01:09:04.419Z,6.25
2023-05-12T01:11:40.915Z,5.97
2023-05-12T01:14:12.841Z,6.13
2023-05-12T01:16:43.806Z,5.90
2023-05-12T01:19:34.916Z,6.28
2023-05-12T01:22:03.663Z,5.50
2023-05-12T01:24:35.990Z,5.95
2023-05-12T01:27:03.872Z,5.57
2023-05-12T01:29:32.430Z,6.18
2023-05-12T01:32:03.396Z,6.00
2023-05-12T01:34:31.039Z,5.70
2023-05-12T01:37:01.413Z,5.35
2023-05-12T01:39:29.132Z,5.47
2023-05-12T01:41:57.967Z,5.45
2023-05-12T01:44:28.025Z,5.10
2023-05-12T01:46:55.820Z,5.28
2023-05-12T01:49:23.678Z,5.20
2023-05-12T01:51:56.609Z,5.03
2023-05-12T01:54:34.640Z,4.53
2023-05-12T01:57:08.002Z,5.35
2023-05-12T01:59:40.535Z,5.30
2023-05-12T02:02:14.044Z,4.85
2023-05-12T02:04:49.720Z,4.93
2023-05-12T02:07:17.329Z,4.63
2023-05-12T02:09:46.528Z,4.70
2023-05-12T02:12:15.501Z,4.63
2023-05-12T02:14:43.151Z,5.25
2023-05-12T02:17:11.985Z,4.93
2023-05-12T02:19:40.037Z,4.72
2023-05-12T02:22:09.780Z,5.00
2023-05-12T02:24:39.049Z,4.85
2023-05-12T02:27:08.702Z,4.93
2023-05-12T02:29:40.551Z,5.63
2023-05-12T02:32:11.310Z,5.30
2023-05-12T02:34:39.483Z,4.93
2023-05-12T02:37:08.492Z,4.93
2023-05-12T02:39:39.636Z,5.47
2023-05-12T02:42:07.807Z,5.40
2023-05-12T02:44:37.049Z,5.32
2023-05-12T02:47:05.013Z,5.32
2023-05-12T02:49:35.165Z,5.70
2023-05-12T02:52:05.111Z,6.47
2023-05-12T02:54:32.577Z,5.50
2023-05-12T02:57:01.723Z,6.32
2023-05-12T02:59:33.695Z,6.22
2023-05-12T03:02:02.284Z,5.85
2023-05-12T03:04:30.187Z,5.93
2023-05-12T03:06:58.678Z,5.67
2023-05-12T03:09:30.719Z,5.78
2023-05-12T03:12:06.908Z,6.82
2023-05-12T03:14:41.834Z,5.90
2023-05-12T03:17:16.260Z,6.85
2023-05-12T03:19:44.250Z,7.37
2023-05-12T03:22:28.647Z,7.28
2023-05-12T03:25:10.182Z,7.55
2023-05-12T03:27:59.863Z,7.43
2023-05-12T03:30:44.528Z,7.28
2023-05-12T03:33:17.641Z,7.27
2023-05-12T03:36:17.515Z,7.50
2023-05-12T03:38:55.075Z,7.20
2023-05-12T03:41:25.443Z,6.90
2023-05-12T03:44:01.986Z,7.15
2023-05-12T03:46:43.185Z,6.93
2023-05-12T03:49:19.096Z,7.55
2023-05-12T03:51:57.362Z,6.82
2023-05-12T03:54:32.291Z,7.07
2023-05-12T03:57:08.180Z,6.82
2023-05-12T03:59:53.937Z,7.10
2023-05-12T04:02:22.315Z,7.43
2023-05-12T04:04:51.854Z,7.63
2023-05-12T04:07:27.306Z,6.75
2023-05-12T04:09:58.888Z,7.55
2023-05-12T04:12:55.143Z,7.70
2023-05-12T04:15:35.922Z,6.93
2023-05-12T04:18:08.374Z,7.60
2023-05-12T04:20:40.170Z,7.25
2023-05-12T04:23:11.754Z,7.78
2023-05-12T04:25:49.088Z,7.40
2023-05-12T04:28:20.783Z,7.43
2023-05-12T04:30:54.340Z,8.05
2023-05-12T04:33:32.596Z,7.80
2023-05-12T04:36:06.104Z,8.43
2023-05-12T04:38:47.805Z,7.60
2023-05-12T04:41:27.920Z,7.35
2023-05-12T04:44:02.595Z,7.70
2023-05-12T04:46:46.596Z,8.35
2023-05-12T04:49:24.337Z,7.95
2023-05-12T04:51:52.415Z,7.70
2023-05-12T04:54:38.698Z,8.07
2023-05-12T04:57:21.949Z,7.70
2023-05-12T05:00:05.916Z,7.72
2023-05-12T05:02:38.190Z,7.22
2023-05-12T05:05:10.052Z,6.73
2023-05-12T05:07:38.960Z,7.55
2023-05-12T05:10:14.692Z,7.18
2023-05-12T05:12:53.890Z,6.30
2023-05-12T05:15:37.094Z,6.07
2023-05-12T05:18:10.431Z,5.40
2023-05-12T05:20:58.498Z,6.13
2023-05-12T05:23:34.849Z,5.85
2023-05-12T05:26:02.923Z,5.25
2023-05-12T05:28:43.197Z,5.32
2023-05-12T05:31:34.437Z,5.43
2023-05-12T05:34:16.082Z,5.60
2023-05-12T05:36:44.611Z,6.10
2023-05-12T05:39:15.410Z,5.90
2023-05-12T05:41:49.547Z,5.82
2023-05-12T05:44:37.554Z,5.83
2023-05-12T05:47:17.166Z,5.35
2023-05-12T05:50:16.066Z,5.03
2023-05-12T05:52:52.838Z,5.75
2023-05-12T05:55:29.828Z,5.65
2023-05-12T05:58:19.363Z,5.93
2023-05-12T06:00:57.126Z,5.38
2023-05-12T06:03:35.155Z,4.68
2023-05-12T06:06:14.915Z,4.78
2023-05-12T06:08:59.783Z,4.90
2023-05-12T06:11:34.937Z,5.27
2023-05-12T06:14:19.059Z,5.13
2023-05-12T06:16:46.994Z,5.15
2023-05-12T06:19:29.450Z,5.13
2023-05-12T06:22:06.777Z,6.18
2023-05-12T06:24:38.157Z,4.90
2023-05-12T06:27:14.922Z,4.70
2023-05-12T06:30:02.585Z,4.85
2023-05-12T06:32:51.753Z,4.80
2023-05-12T06:35:26.588Z,4.55
2023-05-12T06:37:58.357Z,4.70
2023-05-12T06:40:29.294Z,4.47
2023-05-12T06:42:59.935Z,4.30
2023-05-12T06:45:31.857Z,4.22
2023-05-12T06:50:42.893Z,4.47
2023-05-12T06:53:19.060Z,4.22
2023-05-12T06:56:10.335Z,4.20
2023-05-12T06:58:52.941Z,4.30
2023-05-12T07:01:26.328Z,4.30
2023-05-12T07:04:04.601Z,4.47
2023-05-12T07:06:35.621Z,4.22
2023-05-12T07:09:06.396Z,4.10
2023-05-12T07:11:40.122Z,3.30
2023-05-12T07:14:22.858Z,3.72
2023-05-12T07:17:07.383Z,2.80
2023-05-12T07:20:08.340Z,3.28
2023-05-12T07:23:09.967Z,3.60
2023-05-12T07:25:56.196Z,3.42
2023-05-12T07:28:39.226Z,4.20
2023-05-12T07:31:26.666Z,3.43
2023-05-12T07:34:05.296Z,3.40
2023-05-12T07:36:33.369Z,3.45
2023-05-12T07:39:21.105Z,3.50
2023-05-12T07:42:05.937Z,3.42
2023-05-12T07:44:56.130Z,5.97
2023-05-12T07:47:32.974Z,6.68
2023-05-12T07:50:21.354Z,6.32
2023-05-12T07:52:52.341Z,6.30
2023-05-12T07:55:40.156Z,7.45
2023-05-12T07:58:13.741Z,8.20
2023-05-12T08:00:41.745Z,8.45
2023-05-12T08:03:32.122Z,7.95
2023-05-12T08:06:16.766Z,7.13
2023-05-12T08:09:10.938Z,7.97
2023-05-12T08:11:45.445Z,7.33
2023-05-12T08:14:26.952Z,8.05
2023-05-12T08:17:12.052Z,9.45
2023-05-12T08:19:43.693Z,7.95
2023-05-12T08:22:21.700Z,7.70
2023-05-12T08:27:46.280Z,7.55
2023-05-12T08:30:16.775Z,7.60
2023-05-12T08:33:03.288Z,8.57
2023-05-12T08:35:44.649Z,7.70
2023-05-12T08:38:14.383Z,6.37
2023-05-12T08:41:08.781Z,8.07
2023-05-12T08:44:01.001Z,7.45
2023-05-12T08:46:47.062Z,6.85
2023-05-12T08:49:21.855Z,7.88
2023-05-12T08:52:16.570Z,7.40
2023-05-12T08:55:11.861Z,7.40
2023-05-12T08:57:46.232Z,7.20
2023-05-12T09:00:17.295Z,7.20
2023-05-12T09:02:54.483Z,7.38
2023-05-12T09:05:27.437Z,7.10
2023-05-12T09:08:04.248Z,8.05
2023-05-12T09:10:37.449Z,7.63
2023-05-12T09:13:23.214Z,7.50
2023-05-12T09:16:13.697Z,7.88
2023-05-12T09:19:04.579Z,7.27
2023-05-12T09:22:08.616Z,7.57
2023-05-12T09:24:50.857Z,8.18
2023-05-12T09:27:25.764Z,7.85
2023-05-12T09:36:06.147Z,4.93
2023-05-12T09:38:50.530Z,5.78
2023-05-12T09:41:47.685Z,5.60
2023-05-12T09:44:40.929Z,4.90
2023-05-12T09:47:46.013Z,4.70
2023-05-12T09:50:28.968Z,4.45
2023-05-12T09:53:34.859Z,5.30
2023-05-12T09:56:28.054Z,5.10
2023-05-12T10:02:21.882Z,5.47
2023-05-12T10:05:15.948Z,4.78
2023-05-12T10:08:03.823Z,4.72
2023-05-12T10:10:46.125Z,4.78
2023-05-12T10:13:30.462Z,4.68
2023-05-12T10:16:01.091Z,5.33
2023-05-12T10:18:37.285Z,4.53
2023-05-12T10:21:25.874Z,5.35
2023-05-12T10:24:09.639Z,5.20
2023-05-12T10:26:50.350Z,5.18
2023-05-12T10:29:32.955Z,5.63
2023-05-12T10:32:09.663Z,5.35
2023-05-12T10:35:06.552Z,5.40
2023-05-12T10:37:45.150Z,5.30
2023-05-12T10:40:37.701Z,5.60
2023-05-12T10:43:05.956Z,4.93
2023-05-12T10:45:49.152Z,4.90
2023-05-12T10:48:39.469Z,4.65
2023-05-12T10:51:29.121Z,4.35
2023-05-12T10:56:51.460Z,4.37
2023-05-12T10:59:27.255Z,8.57
2023-05-12T11:02:09.121Z,4.57
2023-05-12T11:04:48.207Z,4.70
2023-05-12T11:07:25.078Z,5.10
2023-05-12T11:10:05.941Z,4.20
2023-05-12T11:12:39.868Z,3.65
2023-05-12T11:15:22.459Z,4.00
2023-05-12T11:17:58.868Z,6.07
2023-05-12T11:20:31.138Z,6.45
2023-05-12T11:23:04.341Z,6.17
2023-05-12T11:25:46.012Z,3.83
2023-05-12T11:28:24.479Z,4.32
2023-05-12T11:31:05.436Z,3.72
2023-05-12T11:33:50.431Z,3.80
2023-05-12T11:36:44.387Z,3.63
2023-05-12T11:39:21.892Z,3.83
2023-05-12T11:42:09.140Z,3.85
2023-05-12T11:45:11.442Z,3.85
2023-05-12T11:47:58.674Z,5.60
2023-05-12T11:50:34.497Z,5.20
2023-05-12T11:53:03.957Z,3.58
2023-05-12T11:56:03.236Z,3.95
2023-05-12T11:58:40.038Z,4.22
2023-05-12T12:01:12.514Z,3.60
2023-05-12T12:03:55.445Z,3.87
2023-05-12T12:06:48.227Z,3.30
2023-05-12T12:09:48.042Z,3.67
2023-05-12T12:12:22.638Z,3.80
2023-05-12T12:15:03.889Z,3.80
2023-05-12T12:17:40.523Z,3.80
2023-05-12T12:20:12.683Z,3.75
2023-05-12T12:22:49.402Z,3.88
2023-05-12T12:25:17.189Z,3.55
2023-05-12T12:28:10.501Z,3.08
2023-05-12T12:31:24.274Z,4.47
2023-05-12T12:34:08.890Z,3.38
2023-05-12T12:36:47.408Z,3.50
2023-05-12T12:39:22.448Z,3.20
2023-05-12T12:41:52.671Z,3.42
2023-05-12T12:44:27.401Z,3.37
2023-05-12T12:47:04.321Z,3.42
2023-05-12T12:49:37.157Z,3.75
2023-05-12T12:55:07.662Z,3.42
2023-05-12T12:57:47.649Z,3.20
2023-05-12T13:00:19.936Z,3.17
2023-05-12T13:02:51.949Z,3.67
2023-05-12T13:05:23.325Z,4.13
2023-05-12T13:07:52.171Z,3.40
2023-05-12T13:10:28.069Z,3.70
2023-05-12T13:13:09.685Z,3.28
2023-05-12T13:15:39.144Z,2.72
2023-05-12T13:18:07.377Z,3.47
2023-05-12T13:20:37.883Z,3.08
2023-05-12T13:23:18.748Z,2.90
2023-05-12T13:25:52.891Z,2.90
2023-05-12T13:28:20.874Z,2.97
2023-05-12T13:30:58.302Z,2.80
2023-05-12T13:33:33.428Z,3.10
2023-05-12T13:36:04.209Z,2.97
2023-05-12T13:38:31.703Z,2.92
2023-05-12T13:41:02.568Z,3.28
2023-05-12T13:43:33.966Z,3.38
2023-05-12T13:46:05.693Z,3.40
2023-05-12T13:48:37.801Z,3.10
2023-05-12T13:51:08.019Z,3.20
2023-05-12T13:53:40.599Z,3.17
2023-05-12T13:56:25.563Z,3.95
2023-05-12T13:58:56.750Z,3.17
2023-05-12T14:01:45.128Z,3.23
2023-05-12T14:04:33.351Z,3.60
2023-05-12T14:07:05.169Z,4.30
2023-05-12T14:09:46.381Z,3.65
2023-05-12T14:12:20.152Z,3.22
2023-05-12T14:15:29.061Z,3.67
2023-05-12T14:18:03.316Z,3.95
2023-05-12T14:20:32.174Z,3.60
2023-05-12T14:23:04.357Z,3.25
2023-05-12T14:25:48.384Z,3.25
2023-05-12T14:28:24.417Z,3.60
2023-05-12T14:31:26.594Z,3.10
2023-05-12T14:34:07.812Z,3.05
2023-05-12T14:36:35.418Z,3.60
2023-05-12T14:39:03.042Z,3.50
2023-05-12T14:41:39.000Z,3.93
2023-05-12T14:44:20.827Z,3.13
2023-05-12T14:46:48.572Z,3.40
2023-05-12T14:49:18.906Z,4.22
2023-05-12T14:51:46.969Z,4.07
2023-05-12T14:54:25.767Z,3.27
2023-05-12T14:56:53.703Z,3.63
2023-05-12T14:59:21.325Z,3.30
2023-05-12T15:01:50.972Z,2.92
2023-05-12T15:04:18.475Z,2.95
2023-05-12T15:06:48.467Z,3.40
2023-05-12T15:09:18.193Z,3.28
2023-05-12T15:11:45.930Z,4.03
2023-05-12T15:14:16.127Z,4.25
2023-05-12T15:16:56.303Z,3.33
2023-05-12T15:19:26.043Z,3.20
2023-05-12T15:21:57.645Z,4.00
2023-05-12T15:24:31.010Z,3.65
2023-05-12T15:27:10.071Z,3.33
2023-05-12T15:29:47.940Z,2.72
2023-05-12T15:32:20.819Z,2.63
2023-05-12T15:34:52.454Z,3.30
2023-05-12T15:37:20.177Z,3.10
2023-05-12T15:39:51.194Z,3.30
2023-05-12T15:42:35.975Z,3.10
2023-05-12T15:45:06.032Z,2.97
2023-05-12T15:47:34.616Z,3.25
2023-05-12T15:50:08.985Z,3.08
2023-05-12T15:53:07.255Z,3.00
2023-05-12T15:55:49.233Z,3.00
2023-05-12T15:58:19.542Z,2.70
2023-05-12T16:00:50.334Z,2.70
2023-05-12T16:03:21.043Z,2.85
2023-05-12T16:05:48.927Z,2.70
2023-05-12T16:08:16.611Z,3.00
2023-05-12T16:10:44.104Z,2.70
2023-05-12T16:13:11.604Z,3.55
2023-05-12T16:15:41.607Z,3.38
2023-05-12T16:18:13.772Z,5.40
2023-05-12T16:20:43.052Z,3.10
2023-05-12T16:23:11.639Z,2.40
2023-05-12T16:25:48.491Z,2.97
2023-05-12T16:28:23.954Z,2.90
2023-05-12T16:31:00.414Z,2.85
2023-05-12T16:33:35.090Z,3.40
2023-05-12T16:36:05.899Z,2.90
2023-05-12T16:38:38.254Z,3.22
2023-05-12T16:41:14.733Z,2.45
2023-05-12T16:43:45.691Z,3.05
2023-05-12T16:46:14.237Z,2.47
2023-05-12T16:48:42.129Z,3.30
2023-05-12T16:51:13.101Z,3.05
2023-05-12T16:53:41.617Z,3.28
2023-05-12T16:56:09.317Z,2.90
2023-05-12T16:58:41.234Z,3.00
2023-05-12T17:01:17.337Z,2.70
2023-05-12T17:03:47.224Z,3.30
2023-05-12T17:06:19.216Z,3.00
2023-05-12T17:08:49.386Z,2.67
2023-05-12T17:11:29.566Z,2.50
2023-05-12T17:14:04.700Z,3.27
2023-05-12T17:16:47.953Z,2.60
2023-05-12T17:19:15.286Z,3.05
2023-05-12T17:21:53.197Z,2.90
2023-05-12T17:24:28.900Z,2.80
2023-05-12T17:27:04.133Z,2.60
2023-05-12T17:29:36.734Z,3.40
2023-05-12T17:32:14.422Z,3.15
2023-05-12T17:34:54.835Z,3.13
2023-05-12T17:37:36.576Z,2.92
2023-05-12T17:40:12.105Z,3.10
2023-05-12T17:42:45.961Z,3.08
2023-05-12T17:45:21.590Z,3.03
2023-05-12T17:47:58.358Z,3.10
2023-05-12T17:50:26.886Z,3.15
2023-05-12T17:52:55.624Z,3.10
2023-05-12T17:55:23.404Z,2.88
2023-05-12T17:57:53.142Z,3.05
2023-05-12T18:00:24.361Z,3.55
2023-05-12T18:02:53.030Z,3.50
2023-05-12T18:05:25.466Z,3.10
2023-05-12T18:07:56.134Z,2.95
2023-05-12T18:10:36.317Z,3.40
2023-05-12T18:13:06.063Z,3.38
2023-05-12T18:15:33.728Z,3.53
2023-05-12T18:18:01.759Z,3.27
2023-05-12T18:20:31.192Z,3.65
2023-05-12T18:23:00.371Z,3.72
2023-05-12T18:25:28.765Z,3.92
2023-05-12T18:27:57.832Z,4.72
2023-05-12T18:30:28.789Z,4.30
2023-05-12T18:32:58.229Z,4.30
2023-05-12T18:35:31.945Z,3.92
2023-05-12T18:38:01.520Z,4.18
2023-05-12T18:40:30.565Z,3.88
2023-05-12T18:43:03.729Z,4.10
2023-05-12T18:45:33.362Z,3.70
2023-05-12T18:48:03.438Z,3.55
2023-05-12T18:50:30.996Z,4.32
2023-05-12T18:53:03.825Z,3.63
2023-05-12T18:55:31.071Z,3.83
2023-05-12T18:57:58.440Z,3.75
2023-05-12T19:00:26.425Z,3.13
2023-05-12T19:02:56.837Z,3.85
2023-05-12T19:05:27.905Z,3.65
2023-05-12T19:07:55.415Z,3.63
2023-05-12T19:10:22.873Z,3.53
2023-05-12T19:12:52.518Z,3.38
2023-05-12T19:15:27.592Z,3.40
2023-05-12T19:17:57.924Z,3.40
2023-05-12T19:20:25.180Z,3.60
2023-05-12T19:22:53.425Z,3.92
2023-05-12T19:25:21.138Z,3.30
2023-05-12T19:27:48.779Z,3.53
2023-05-12T19:30:16.321Z,3.40
2023-05-12T19:32:46.352Z,4.00
2023-05-12T19:35:17.114Z,4.03
2023-05-12T19:37:47.616Z,3.35
2023-05-12T19:40:15.121Z,4.00
2023-05-12T19:42:43.893Z,3.85
2023-05-12T19:45:15.296Z,3.97
2023-05-12T19:47:42.836Z,4.03
2023-05-12T19:50:16.283Z,4.50
2023-05-12T19:52:44.738Z,5.18
2023-05-12T19:55:11.889Z,4.35
2023-05-12T19:57:39.296Z,3.87
2023-05-12T20:00:12.768Z,3.92
2023-05-12T20:02:40.246Z,3.65
2023-05-12T20:05:07.897Z,3.30
2023-05-12T20:07:35.343Z,3.75
2023-05-12T20:10:02.918Z,3.60
2023-05-12T20:12:31.685Z,3.72
2023-05-12T20:14:59.155Z,3.90
2023-05-12T20:17:26.520Z,3.75
2023-05-12T20:19:57.931Z,3.58
2023-05-12T20:22:28.648Z,2.80
2023-05-12T20:25:04.481Z,4.22
2023-05-12T20:27:35.713Z,3.90
2023-05-12T20:30:03.823Z,4.30
2023-05-12T20:32:31.425Z,3.35
2023-05-12T20:35:01.958Z,3.90
2023-05-12T20:37:29.372Z,4.68
2023-05-12T20:39:58.891Z,4.70
2023-05-12T20:42:28.484Z,4.20
2023-05-12T20:44:59.530Z,3.83
2023-05-12T20:47:30.282Z,3.63
2023-05-12T20:50:03.818Z,4.43
2023-05-12T20:52:31.493Z,3.92
2023-05-12T20:55:07.725Z,3.78
2023-05-12T20:57:35.124Z,4.05
2023-05-12T21:00:02.530Z,3.97
2023-05-12T21:02:30.229Z,3.28
2023-05-12T21:04:58.684Z,4.05
2023-05-12T21:07:27.062Z,3.67
2023-05-12T21:09:54.390Z,4.32
2023-05-12T21:12:22.198Z,4.43
2023-05-12T21:14:49.803Z,3.75
2023-05-12T21:17:18.363Z,4.07
2023-05-12T21:19:50.153Z,4.75
2023-05-12T21:22:17.566Z,4.20
2023-05-12T21:24:44.997Z,4.30
2023-05-12T21:27:12.418Z,4.18
2023-05-12T21:29:39.700Z,3.92
2023-05-12T21:32:07.282Z,5.10
2023-05-12T21:34:40.579Z,5.45
2023-05-12T21:37:10.924Z,5.37
2023-05-12T21:39:39.606Z,5.22
2023-05-12T21:42:07.336Z,5.00
2023-05-12T21:44:43.951Z,4.63
2023-05-12T21:47:22.809Z,5.95
2023-05-12T21:49:58.015Z,6.43
2023-05-12T21:52:26.268Z,8.00
2023-05-12T21:55:00.909Z,6.22
2023-05-12T21:57:31.857Z,4.95
2023-05-12T22:00:04.669Z,6.30
2023-05-12T22:02:37.735Z,4.97
2023-05-12T22:05:05.912Z,4.97
2023-05-12T22:07:42.198Z,4.85
2023-05-12T22:10:10.100Z,5.18
2023-05-12T22:12:45.773Z,5.03
2023-05-12T22:15:13.277Z,4.30
2023-05-12T22:17:40.616Z,4.68
2023-05-12T22:20:09.503Z,4.15
2023-05-12T22:22:42.640Z,4.57
2023-05-12T22:25:12.200Z,4.80
2023-05-12T22:27:39.842Z,4.33
2023-05-12T22:30:08.135Z,3.95
2023-05-12T22:32:47.015Z,4.43
2023-05-12T22:35:15.830Z,4.22
2023-05-12T22:37:45.896Z,4.03
2023-05-12T22:40:13.360Z,3.63
2023-05-12T22:42:45.916Z,4.15
2023-05-12T22:45:13.232Z,3.85
2023-05-12T22:47:45.796Z,4.07
2023-05-12T22:50:14.876Z,4.28
2023-05-12T22:52:42.290Z,3.77
2023-05-12T22:55:19.652Z,4.00
2023-05-12T22:57:47.013Z,4.15
2023-05-12T23:00:22.137Z,4.05
2023-05-12T23:02:52.232Z,3.80
2023-05-12T23:05:22.931Z,4.50
2023-05-12T23:07:57.347Z,4.43
2023-05-12T23:10:31.690Z,4.53
2023-05-12T23:13:01.936Z,4.93
2023-05-12T23:15:32.933Z,4.40
2023-05-12T23:18:00.962Z,4.50
2023-05-12T23:20:35.352Z,4.97
2023-05-12T23:23:03.213Z,4.97
2023-05-12T23:25:31.213Z,4.90
2023-05-12T23:28:02.393Z,4.70
2023-05-12T23:30:35.432Z,4.90
2023-05-12T23:33:06.806Z,4.70
2023-05-12T23:35:37.253Z,4.93
2023-05-12T23:38:08.348Z,5.93
2023-05-12T23:40:39.466Z,6.32
2023-05-12T23:43:09.915Z,8.40
2023-05-12T23:45:38.036Z,6.40
2023-05-12T23:48:11.525Z,4.70
2023-05-12T23:50:42.186Z,4.75
2023-05-12T23:53:18.767Z,4.80
2023-05-12T23:55:49.901Z,4.80
2023-05-12T23:58:29.117Z,4.80
